Time;durP1;ratioP1;P1;durP2;ratioP2;P2;SDS_P1;SDS_P2;PMS_P1;PMS_P2;Temp;Humidity;BMP_temperature;BMP_pressure;BME280_temperature;BME280_humidity;BME280_pressure;Samples;Min_cycle;Max_cycle;Signal;HPM_P1;HPM_P2
2023/06/27 00:01:57;;;;;;;4.13;2.58;;;;;;;14.74;100.00;101878.84;4972769;28;20047;-83
2023/06/27 00:04:28;;;;;;;6.93;3.20;;;;;;;14.72;100.00;101873.53;4991880;28;20059;-82
2023/06/27 00:06:57;;;;;;;4.93;3.22;;;;;;;14.71;100.00;101874.44;4945027;28;20075;-83
2023/06/27 00:09:24;;;;;;;8.23;2.95;;;;;;;14.68;100.00;101874.41;4949554;28;20047;-83
2023/06/27 00:11:52;;;;;;;4.32;2.75;;;;;;;14.64;100.00;101875.28;4948632;29;20051;-82
2023/06/27 00:14:19;;;;;;;14.35;3.65;;;;;;;14.61;100.00;101869.97;4966259;28;20066;-82
2023/06/27 00:16:47;;;;;;;2.78;2.20;;;;;;;14.58;100.00;101869.97;4966531;28;20050;-83
2023/06/27 00:19:14;;;;;;;11.82;3.45;;;;;;;14.57;100.00;101874.41;4956705;28;20054;-82
2023/06/27 00:21:41;;;;;;;5.63;2.70;;;;;;;14.55;100.00;101865.47;4916493;28;20116;-83
2023/06/27 00:24:10;;;;;;;5.70;2.60;;;;;;;14.52;100.00;101867.28;4946259;29;20458;-82
2023/06/27 00:26:37;;;;;;;6.53;3.47;;;;;;;14.49;100.00;101876.09;4951992;29;20055;-83
2023/06/27 00:29:05;;;;;;;6.85;2.90;;;;;;;14.50;100.00;101876.97;4931680;29;20039;-82
2023/06/27 00:31:34;;;;;;;7.38;2.83;;;;;;;14.51;100.00;101870.78;4964127;28;20047;-83
2023/06/27 00:34:01;;;;;;;7.03;3.03;;;;;;;14.52;100.00;101873.47;4911772;29;20051;-81
2023/06/27 00:36:29;;;;;;;6.28;3.42;;;;;;;14.53;100.00;101871.69;4929025;28;20062;-81
2023/06/27 00:38:56;;;;;;;7.95;2.83;;;;;;;14.51;100.00;101866.38;4949494;29;20411;-81
2023/06/27 00:41:24;;;;;;;7.90;2.97;;;;;;;14.49;100.00;101869.91;4932432;29;20700;-80
2023/06/27 00:43:51;;;;;;;6.32;2.83;;;;;;;14.46;100.00;101862.84;4950654;29;20483;-81
2023/06/27 00:46:40;;;;;;;7.30;3.45;;;;;;;14.46;100.00;101862.84;4933131;29;20051;-80
2023/06/27 00:49:10;;;;;;;5.38;2.80;;;;;;;14.46;100.00;101856.63;4937614;28;20058;-81
2023/06/27 00:51:41;;;;;;;7.65;3.22;;;;;;;14.46;100.00;101861.94;4957888;28;20051;-80
2023/06/27 00:54:10;;;;;;;5.45;3.20;;;;;;;14.46;100.00;101856.63;4909154;28;20051;-80
2023/06/27 00:56:39;;;;;;;6.53;3.00;;;;;;;14.45;100.00;101858.41;4925217;29;20066;-80
2023/06/27 00:59:07;;;;;;;5.50;2.95;;;;;;;14.43;100.00;101857.50;4948536;29;20050;-80
2023/06/27 01:01:34;;;;;;;6.90;3.35;;;;;;;14.43;100.00;101861.03;4933410;29;20422;-80
2023/06/27 01:04:03;;;;;;;6.93;3.35;;;;;;;14.40;100.00;101861.03;4947383;29;20054;-80
2023/06/27 01:06:46;;;;;;;6.95;3.22;;;;;;;14.39;100.00;101858.38;4947822;28;20051;-80
2023/06/27 01:09:28;;;;;;;7.28;3.15;;;;;;;14.37;100.00;101850.41;4925528;28;20058;-81
2023/06/27 01:12:03;;;;;;;5.20;2.88;;;;;;;14.33;100.00;101851.28;4950892;29;20059;-80
2023/06/27 01:14:33;;;;;;;9.05;3.90;;;;;;;14.29;100.00;101857.47;4955222;29;20058;-81
2023/06/27 01:17:02;;;;;;;8.55;3.33;;;;;;;14.24;100.00;101859.19;4950908;28;20066;-80
2023/06/27 01:19:32;;;;;;;8.10;3.33;;;;;;;14.23;100.00;101852.13;4954909;28;20055;-80
2023/06/27 01:22:05;;;;;;;3.90;3.47;;;;;;;14.20;100.00;101860.06;4952586;28;20058;-83
2023/06/27 01:24:32;;;;;;;5.28;3.38;;;;;;;14.15;100.00;101852.09;4941772;29;20439;-84
2023/06/27 01:27:00;;;;;;;7.53;3.47;;;;;;;14.14;100.00;101858.28;4968442;28;20054;-83
2023/06/27 01:29:29;;;;;;;4.05;3.40;;;;;;;14.11;100.00;101857.38;4940147;29;20055;-83
2023/06/27 01:32:08;;;;;;;9.63;3.70;;;;;;;14.09;100.00;101861.78;4968365;28;20047;-83
2023/06/27 01:35:05;;;;;;;7.63;3.75;;;;;;;14.03;100.00;101855.56;4954490;29;20047;-83
2023/06/27 01:37:38;;;;;;;8.27;3.50;;;;;;;14.00;100.00;101860.84;4949740;28;20063;-83
2023/06/27 01:40:10;;;;;;;7.68;3.97;;;;;;;13.98;100.00;101853.78;4903617;28;20051;-83
2023/06/27 01:42:41;;;;;;;7.90;3.95;;;;;;;13.95;100.00;101851.09;4954336;29;20058;-83
2023/06/27 01:45:11;;;;;;;8.27;3.90;;;;;;;13.92;100.00;101861.69;4952591;28;20055;-84
2023/06/27 01:47:41;;;;;;;9.15;4.10;;;;;;;13.88;100.00;101854.63;4936945;29;20047;-83
2023/06/27 01:50:11;;;;;;;7.32;4.00;;;;;;;13.83;100.00;101857.22;4956759;28;20055;-83
2023/06/27 01:52:40;;;;;;;5.78;4.22;;;;;;;13.82;100.00;101852.81;4949840;28;20061;-82
2023/06/27 01:55:08;;;;;;;5.57;3.58;;;;;;;13.79;100.00;101851.03;4918312;28;20104;-83
2023/06/27 01:57:36;;;;;;;7.72;4.03;;;;;;;13.76;100.00;101851.03;4921027;29;20062;-83
2023/06/27 02:00:06;;;;;;;7.78;4.15;;;;;;;13.76;100.00;101852.75;4934750;29;20773;-82
2023/06/27 02:02:44;;;;;;;6.53;3.67;;;;;;;13.74;100.00;101855.44;4958084;28;20499;-83
2023/06/27 02:05:11;;;;;;;6.45;3.92;;;;;;;13.72;100.00;101850.97;4951078;29;20039;-81
2023/06/27 02:07:39;;;;;;;7.38;3.90;;;;;;;13.70;100.00;101847.44;4929585;29;20055;-82
2023/06/27 02:10:10;;;;;;;7.63;4.45;;;;;;;13.70;100.00;101850.09;4917629;28;20039;-83
2023/06/27 02:12:39;;;;;;;5.85;4.10;;;;;;;13.66;100.00;101846.53;4954361;29;20043;-82
2023/06/27 02:15:07;;;;;;;10.43;4.50;;;;;;;13.67;100.00;101850.06;4951167;29;20074;-82
2023/06/27 02:17:34;;;;;;;9.13;3.90;;;;;;;13.69;100.00;101857.16;4953873;28;20065;-81
2023/06/27 02:20:02;;;;;;;5.82;4.00;;;;;;;13.68;100.00;101836.81;4951707;29;20054;-83
2023/06/27 02:22:30;;;;;;;6.95;3.75;;;;;;;13.68;100.00;101846.53;4920443;29;20051;-83
2023/06/27 02:24:58;;;;;;;15.30;4.90;;;;;;;13.68;100.00;101844.78;4944243;28;20043;-82
2023/06/27 02:27:25;;;;;;;8.07;4.60;;;;;;;13.69;100.00;101833.31;4970500;28;20415;-84
2023/06/27 02:29:52;;;;;;;6.70;4.30;;;;;;;13.68;100.00;101836.81;4951045;29;20043;-83
2023/06/27 02:32:21;;;;;;;9.18;3.75;;;;;;;13.68;100.00;101833.28;4951852;28;20573;-83
2023/06/27 02:34:48;;;;;;;8.38;4.43;;;;;;;13.65;100.00;101842.13;4952537;29;20593;-83
2023/06/27 02:37:16;;;;;;;5.00;4.28;;;;;;;13.63;100.00;101838.56;4951534;29;20146;-83
2023/06/27 02:39:44;;;;;;;7.50;3.88;;;;;;;13.62;100.00;101842.09;4923602;29;20447;-83
2023/06/27 02:42:11;;;;;;;5.35;3.53;;;;;;;13.59;100.00;101842.97;4887238;29;20081;-83
2023/06/27 02:44:39;;;;;;;8.50;4.70;;;;;;;13.55;100.00;101838.50;4954074;29;20063;-84
2023/06/27 02:47:06;;;;;;;8.73;4.40;;;;;;;13.55;100.00;101834.97;4977687;28;20088;-83
2023/06/27 02:49:33;;;;;;;5.85;3.83;;;;;;;13.54;100.00;101839.41;4966815;28;20104;-83
2023/06/27 02:52:01;;;;;;;6.70;4.43;;;;;;;13.53;100.00;101842.91;4935910;29;20709;-82
2023/06/27 02:54:28;;;;;;;6.82;4.43;;;;;;;13.51;100.00;101834.06;4928885;28;20050;-82
2023/06/27 02:56:57;;;;;;;9.25;4.10;;;;;;;13.49;100.00;101834.94;4921242;28;20060;-83
2023/06/27 02:59:25;;;;;;;9.18;4.20;;;;;;;13.47;100.00;101837.56;4937085;29;20403;-83
2023/06/27 03:01:57;;;;;;;4.77;4.10;;;;;;;13.45;100.00;101836.69;4968472;28;20506;-83
2023/06/27 03:04:25;;;;;;;6.68;3.90;;;;;;;13.45;100.00;101834.91;4948517;29;20311;-83
2023/06/27 03:06:53;;;;;;;7.55;4.22;;;;;;;13.44;100.00;101829.63;4944191;29;20039;-83
2023/06/27 03:09:21;;;;;;;6.65;4.35;;;;;;;13.44;100.00;101837.56;4953169;29;20059;-83
2023/06/27 03:11:48;;;;;;;5.05;3.47;;;;;;;13.45;100.00;101834.91;4928502;28;20457;-82
2023/06/27 03:14:21;;;;;;;7.15;4.68;;;;;;;13.47;100.00;101836.69;4951372;28;20047;-84
2023/06/27 03:16:54;;;;;;;;;;;;;;;13.45;100.00;101836.69;4952080;29;20402;-82
2023/06/27 03:19:21;;;;;;;11.63;5.17;;;;;;;13.43;100.00;101839.31;4936478;29;19926;-83
2023/06/27 03:22:06;;;;;;;6.88;4.18;;;;;;;13.43;100.00;101841.06;4949477;29;20050;-81
2023/06/27 03:24:33;;;;;;;7.65;3.78;;;;;;;13.43;100.00;101849.03;4984896;28;20047;-83
2023/06/27 03:27:00;;;;;;;6.20;3.97;;;;;;;13.44;100.00;101843.75;4934129;28;20051;-82
2023/06/27 03:29:29;;;;;;;7.00;3.55;;;;;;;13.45;100.00;101842.84;4948235;28;20096;-85
2023/06/27 03:31:57;;;;;;;6.68;3.85;;;;;;;13.47;100.00;101840.22;4965918;28;20051;-82
2023/06/27 03:34:27;;;;;;;10.57;3.50;;;;;;;13.47;100.00;101834.94;4968186;28;20518;-83
2023/06/27 03:36:56;;;;;;;7.00;3.35;;;;;;;13.48;100.00;101839.38;4936133;29;20043;-82
2023/06/27 03:39:23;;;;;;;10.00;4.57;;;;;;;13.49;100.00;101835.81;4952365;29;20054;-82
2023/06/27 03:41:52;;;;;;;8.02;3.53;;;;;;;13.50;100.00;101836.72;4908657;28;20047;-83
2023/06/27 03:44:20;;;;;;;7.25;3.22;;;;;;;13.54;100.00;101843.81;4939177;28;20055;-83
2023/06/27 03:46:48;;;;;;;6.07;3.45;;;;;;;13.58;100.00;101841.19;4937695;29;20043;-82
2023/06/27 03:49:17;;;;;;;7.85;3.95;;;;;;;13.61;100.00;101835.91;4934849;29;20055;-83
2023/06/27 03:51:45;;;;;;;8.20;3.67;;;;;;;13.65;100.00;101837.69;4951269;29;20051;-83
2023/06/27 03:54:12;;;;;;;4.95;3.42;;;;;;;13.71;100.00;101828.91;4966734;28;20079;-83
2023/06/27 03:56:40;;;;;;;6.60;3.80;;;;;;;13.76;100.00;101835.13;4966808;28;20066;-83
2023/06/27 03:59:07;;;;;;;8.43;3.50;;;;;;;13.80;100.00;101836.91;4915833;28;20050;-83
2023/06/27 04:01:35;;;;;;;5.55;3.67;;;;;;;13.87;100.00;101832.50;4924207;28;20070;-84
2023/06/27 04:04:02;;;;;;;5.75;3.10;;;;;;;13.93;100.00;101835.22;4944809;28;20062;-83
2023/06/27 04:06:30;;;;;;;6.28;3.47;;;;;;;14.03;100.00;101831.72;4916527;29;20059;-84
2023/06/27 04:08:57;;;;;;;5.85;3.38;;;;;;;14.22;100.00;101834.47;4951414;28;20517;-82
2023/06/27 04:11:25;;;;;;;7.88;3.38;;;;;;;14.48;100.00;101834.53;4936012;29;20051;-84
2023/06/27 04:14:02;;;;;;;4.03;3.17;;;;;;;14.49;100.00;101835.44;4916246;28;20047;-84
2023/06/27 04:16:29;;;;;;;9.93;4.00;;;;;;;14.59;100.00;101839.91;4917312;29;20063;-83
2023/06/27 04:18:57;;;;;;;6.18;3.35;;;;;;;15.28;100.00;101832.00;4942332;28;20085;-83
2023/06/27 04:21:26;;;;;;;12.35;3.53;;;;;;;15.77;100.00;101839.06;4933892;29;20427;-83
2023/06/27 04:23:56;;;;;;;7.30;3.10;;;;;;;16.20;100.00;101835.34;4927865;29;20059;-83
2023/06/27 04:26:25;;;;;;;4.72;2.85;;;;;;;16.89;100.00;101830.53;4927488;29;20055;-83
2023/06/27 04:28:52;;;;;;;5.72;2.60;;;;;;;17.64;100.00;101839.66;4912113;28;20063;-84
2023/06/27 04:31:21;;;;;;;4.53;2.50;;;;;;;18.25;100.00;101830.06;4973582;28;20050;-84
2023/06/27 04:33:49;;;;;;;3.85;2.33;;;;;;;18.87;100.00;101837.25;4933614;29;20059;-83
2023/06/27 04:36:20;;;;;;;4.88;2.47;;;;;;;19.47;100.00;101829.09;4918454;29;20059;-83
2023/06/27 04:38:48;;;;;;;5.60;2.40;;;;;;;20.08;100.00;101825.28;4946101;28;20036;-84
2023/06/27 04:41:16;;;;;;;4.32;1.90;;;;;;;20.55;100.00;101826.06;4939962;28;20044;-83
2023/06/27 04:43:45;;;;;;;4.82;2.25;;;;;;;21.07;100.00;101830.16;4964136;28;20063;-84
2023/06/27 04:46:12;;;;;;;4.47;2.00;;;;;;;21.58;100.00;101826.19;4920322;28;20495;-84
2023/06/27 04:48:40;;;;;;;5.55;2.17;;;;;;;21.97;100.00;101821.53;4959624;28;20054;-83
2023/06/27 04:51:08;;;;;;;3.33;1.60;;;;;;;22.41;100.00;101817.59;4964361;28;20051;-83
2023/06/27 04:53:35;;;;;;;5.43;2.03;;;;;;;22.75;100.00;101815.59;4932413;28;20066;-84
2023/06/27 04:56:04;;;;;;;5.55;1.73;;;;;;;23.04;100.00;101820.97;4971335;28;20062;-83
2023/06/27 04:58:32;;;;;;;6.10;1.92;;;;;;;23.28;98.84;101822.81;4962092;28;20054;-85
2023/06/27 05:01:00;;;;;;;4.85;1.80;;;;;;;23.59;98.09;101820.84;4891858;28;20052;-83
2023/06/27 05:03:28;;;;;;;3.28;1.70;;;;;;;23.86;95.87;101822.56;4942000;28;20413;-82
2023/06/27 05:05:55;;;;;;;5.43;1.95;;;;;;;24.15;93.73;101817.91;4932348;29;20052;-83
2023/06/27 05:08:22;;;;;;;2.63;1.77;;;;;;;24.35;91.25;101814.44;4967873;28;20051;-81
2023/06/27 05:10:50;;;;;;;5.68;2.08;;;;;;;24.51;88.58;101817.41;4903956;28;20052;-84
2023/06/27 05:13:18;;;;;;;6.30;1.67;;;;;;;24.76;87.14;101822.69;4944359;29;20537;-84
2023/06/27 05:15:45;;;;;;;5.07;2.22;;;;;;;24.95;86.15;101819.25;4907334;28;20063;-84
2023/06/27 05:18:17;;;;;;;4.95;1.75;;;;;;;25.15;83.39;101818.41;4947737;28;20055;-82
2023/06/27 05:20:45;;;;;;;4.82;2.10;;;;;;;25.09;81.85;101825.81;4968893;28;20039;-84
2023/06/27 05:23:13;;;;;;;6.40;1.58;;;;;;;25.11;81.01;101812.28;4952024;28;20103;-82
2023/06/27 05:25:40;;;;;;;4.70;1.63;;;;;;;25.31;81.05;101816.81;4935419;28;20070;-81
2023/06/27 05:28:09;;;;;;;6.55;2.15;;;;;;;25.54;79.21;101821.25;4951228;28;20039;-81
2023/06/27 05:30:36;;;;;;;4.78;1.58;;;;;;;25.47;77.56;101811.66;4952892;28;20058;-82
2023/06/27 05:33:09;;;;;;;6.22;2.30;;;;;;;25.50;77.58;101814.22;4931132;28;20046;-82
2023/06/27 05:35:37;;;;;;;5.35;1.60;;;;;;;25.77;76.03;101814.81;4954701;28;20051;-83
2023/06/27 05:38:06;;;;;;;4.20;1.92;;;;;;;26.05;75.30;101822.53;4931047;29;20055;-83
2023/06/27 05:40:33;;;;;;;4.68;1.77;;;;;;;26.47;73.15;101820.59;4948975;29;20056;-83
2023/06/27 05:43:01;;;;;;;5.40;1.80;;;;;;;26.44;71.19;101827.00;4925102;29;20052;-83
2023/06/27 05:45:28;;;;;;;3.90;1.77;;;;;;;26.43;70.42;101814.44;4948068;29;20062;-82
2023/06/27 05:47:56;;;;;;;5.22;1.50;;;;;;;26.31;69.76;101816.84;4912724;28;20066;-83
2023/06/27 05:50:25;;;;;;;5.25;1.50;;;;;;;26.67;69.24;101825.03;4949244;29;20051;-82
2023/06/27 05:52:52;;;;;;;5.25;1.80;;;;;;;26.77;67.46;101820.06;4949513;29;20054;-83
2023/06/27 05:55:19;;;;;;;4.00;1.58;;;;;;;26.93;66.72;101830.97;4947162;29;20058;-83
2023/06/27 05:57:47;;;;;;;2.97;1.38;;;;;;;27.12;65.75;101820.97;4977384;28;20517;-82
2023/06/27 06:00:15;;;;;;;7.10;1.80;;;;;;;27.31;63.38;101823.63;4977424;28;20048;-82
2023/06/27 06:02:47;;;;;;;7.43;1.80;;;;;;;27.31;62.17;101820.06;4925156;28;20404;-83
2023/06/27 06:05:17;;;;;;;3.60;1.52;;;;;;;27.19;60.77;101825.13;4949200;28;20062;-82
2023/06/27 06:07:45;;;;;;;4.50;1.52;;;;;;;26.86;60.30;101816.00;4933709;29;20054;-82
2023/06/27 06:10:13;;;;;;;4.22;1.38;;;;;;;26.59;61.21;101825.41;4967968;28;20083;-82
2023/06/27 06:12:43;;;;;;;9.70;1.92;;;;;;;26.24;61.55;101821.69;4914895;28;20052;-82
2023/06/27 06:15:12;;;;;;;2.50;1.13;;;;;;;25.76;62.58;101825.66;4920795;29;20043;-83
2023/06/27 06:17:40;;;;;;;7.88;1.52;;;;;;;25.19;65.01;101826.28;4973177;28;20059;-82
2023/06/27 06:20:09;;;;;;;8.52;1.70;;;;;;;24.94;66.21;101817.50;4929422;28;20047;-83
2023/06/27 06:22:37;;;;;;;6.35;1.70;;;;;;;24.65;67.42;101825.84;4952685;29;20058;-82
2023/06/27 06:25:05;;;;;;;4.50;1.50;;;;;;;24.49;69.73;101820.16;4959408;28;20047;-81
2023/06/27 06:27:33;;;;;;;3.67;1.40;;;;;;;24.49;70.70;101825.53;4950905;29;20486;-83
2023/06/27 06:30:00;;;;;;;8.20;1.77;;;;;;;24.31;71.91;101831.66;4943148;28;20066;-82
2023/06/27 06:32:28;;;;;;;7.05;1.55;;;;;;;24.25;72.25;101840.88;4965876;28;20047;-82
2023/06/27 06:34:56;;;;;;;6.72;1.75;;;;;;;24.12;71.13;101840.44;4896279;28;20118;-82
2023/06/27 06:37:24;;;;;;;4.20;1.20;;;;;;;23.96;72.32;101833.88;4967271;28;20066;-82
2023/06/27 06:39:51;;;;;;;6.47;1.40;;;;;;;23.81;73.32;101840.69;4943414;28;20085;-82
2023/06/27 06:42:19;;;;;;;6.07;1.38;;;;;;;23.82;73.91;101836.19;4967301;28;20426;-82
2023/06/27 06:44:48;;;;;;;4.97;1.73;;;;;;;23.69;74.58;101839.31;4930912;29;20047;-82
2023/06/27 06:47:15;;;;;;;3.83;1.40;;;;;;;23.47;76.13;101832.94;4965792;28;20062;-82
2023/06/27 06:49:43;;;;;;;6.38;1.80;;;;;;;23.29;77.63;101834.44;4893078;28;20059;-82
2023/06/27 06:52:10;;;;;;;4.65;1.52;;;;;;;23.17;78.05;101830.38;4972396;28;20047;-82
2023/06/27 06:54:38;;;;;;;6.22;1.60;;;;;;;22.93;79.89;101823.97;4933657;29;20058;-83
2023/06/27 06:57:06;;;;;;;5.22;1.45;;;;;;;22.91;80.13;101826.72;4949879;29;20054;-83
2023/06/27 06:59:34;;;;;;;2.55;1.27;;;;;;;22.66;77.49;101836.50;4946072;28;20047;-82
2023/06/27 07:02:01;;;;;;;5.43;1.48;;;;;;;22.33;78.19;101842.00;4931867;29;20478;-82
2023/06/27 07:04:28;;;;;;;3.63;1.65;;;;;;;22.07;80.37;101834.69;4949712;29;20063;-82
2023/06/27 07:06:56;;;;;;;6.22;1.65;;;;;;;21.73;82.39;101832.94;4918108;28;20056;-82
2023/06/27 07:09:23;;;;;;;5.93;1.05;;;;;;;21.47;83.57;101831.84;4948568;28;20058;-82
2023/06/27 07:11:51;;;;;;;6.05;1.10;;;;;;;21.42;85.01;101829.28;4961603;28;20043;-82
2023/06/27 07:14:18;;;;;;;11.07;1.40;;;;;;;21.47;85.51;101831.84;4944198;28;20061;-80
2023/06/27 07:16:46;;;;;;;4.45;1.10;;;;;;;21.53;84.71;101845.13;4935523;28;20055;-82
2023/06/27 07:19:13;;;;;;;3.50;1.17;;;;;;;21.49;81.08;101846.09;4934692;29;20074;-82
2023/06/27 07:21:40;;;;;;;3.30;1.00;;;;;;;21.43;79.55;101844.41;4885835;28;20050;-82
2023/06/27 07:24:08;;;;;;;2.42;1.00;;;;;;;21.43;78.73;101833.69;4949292;28;20051;-82
2023/06/27 07:26:35;;;;;;;3.60;0.90;;;;;;;21.34;77.38;101842.00;4952285;29;20047;-82
2023/06/27 07:29:03;;;;;;;4.40;1.45;;;;;;;21.22;77.40;101842.31;4931674;29;20055;-83
2023/06/27 07:31:30;;;;;;;2.40;1.30;;;;;;;21.08;78.03;101841.75;4925654;28;20043;-82
2023/06/27 07:33:58;;;;;;;3.13;1.35;;;;;;;21.05;77.79;101848.09;4932304;29;20058;-82
2023/06/27 07:36:25;;;;;;;3.58;1.15;;;;;;;21.16;77.58;101834.44;4943135;28;20047;-81
2023/06/27 07:38:52;;;;;;;5.03;1.27;;;;;;;21.26;77.06;101835.06;4945349;29;20063;-83
2023/06/27 07:41:20;;;;;;;5.38;1.30;;;;;;;21.42;76.97;101839.13;4950274;29;20047;-84
2023/06/27 07:43:48;;;;;;;2.95;0.95;;;;;;;21.42;76.48;101840.00;4954451;28;20063;-82
2023/06/27 07:46:16;;;;;;;3.97;1.10;;;;;;;21.37;76.49;101839.22;4969351;28;20043;-82
2023/06/27 07:48:43;;;;;;;2.95;1.00;;;;;;;21.30;75.47;101834.94;4946130;29;20058;-82
2023/06/27 07:51:11;;;;;;;3.60;1.20;;;;;;;21.27;76.74;101839.53;4960454;28;20051;-82
2023/06/27 07:53:38;;;;;;;4.15;1.40;;;;;;;21.40;76.65;101830.25;4909790;28;20052;-82
2023/06/27 07:56:06;;;;;;;2.40;1.02;;;;;;;21.40;75.52;101839.16;4957177;28;20516;-82
2023/06/27 07:58:33;;;;;;;3.47;0.80;;;;;;;21.37;73.78;101841.03;4977275;28;20039;-82
2023/06/27 08:01:01;;;;;;;2.78;1.35;;;;;;;21.29;74.98;101835.00;4911055;28;20043;-83
2023/06/27 08:03:29;;;;;;;2.40;1.10;;;;;;;21.40;74.87;101839.16;4937932;29;20442;-83
2023/06/27 08:06:03;;;;;;;4.13;1.02;;;;;;;21.45;73.58;101840.88;4947307;29;20047;-81
2023/06/27 08:08:31;;;;;;;3.13;0.98;;;;;;;21.43;74.24;101844.41;4919121;28;20066;-80
2023/06/27 08:10:58;;;;;;;5.10;1.08;;;;;;;21.45;75.07;101844.41;4914969;29;20055;-82
2023/06/27 08:13:27;;;;;;;2.65;0.95;;;;;;;21.43;76.62;101839.06;4957278;28;20610;-82
2023/06/27 08:15:54;;;;;;;4.10;1.08;;;;;;;21.38;76.88;101845.50;4939180;28;20043;-82
2023/06/27 08:18:22;;;;;;;3.58;0.98;;;;;;;21.29;76.18;101845.72;4935405;29;20062;-82
2023/06/27 08:20:49;;;;;;;7.65;1.63;;;;;;;21.22;76.91;101851.22;4946589;28;20051;-81
2023/06/27 08:23:18;;;;;;;10.20;1.60;;;;;;;21.26;77.66;101852.03;4918304;28;20450;-82
2023/06/27 08:25:45;;;;;;;2.65;1.20;;;;;;;21.24;77.02;101851.19;4930326;28;20051;-81
2023/06/27 08:28:13;;;;;;;2.88;0.98;;;;;;;21.26;77.68;101857.38;4931951;29;20070;-81
2023/06/27 08:30:41;;;;;;;6.57;1.55;;;;;;;21.28;76.40;101865.41;4948786;28;20055;-82
2023/06/27 08:33:08;;;;;;;3.63;0.90;;;;;;;21.25;78.03;101847.59;4952884;28;20470;-81
2023/06/27 08:35:36;;;;;;;2.33;1.17;;;;;;;21.33;77.86;101858.13;4950995;28;20055;-81
2023/06/27 08:38:04;;;;;;;7.65;1.25;;;;;;;21.40;78.30;101854.38;4953847;28;20047;-81
2023/06/27 08:40:37;;;;;;;2.72;0.95;;;;;;;21.46;79.23;101848.88;4893277;29;20062;-82
2023/06/27 08:43:06;;;;;;;6.10;1.70;;;;;;;21.63;80.84;101853.78;4943277;29;20035;-82
2023/06/27 08:45:36;;;;;;;1.48;0.85;;;;;;;21.65;79.50;101838.53;4946928;29;20059;-81
2023/06/27 08:48:09;;;;;;;5.63;0.85;;;;;;;21.67;75.81;101847.41;4939721;28;20058;-81
2023/06/27 10:17:43;;;;;;;4.15;0.95;;;;;;;22.38;61.66;101842.72;4928464;29;20062;-80
2023/06/27 10:20:13;;;;;;;1.58;0.75;;;;;;;22.47;62.42;101839.75;4909588;29;20064;-79
2023/06/27 10:22:44;;;;;;;2.90;1.23;;;;;;;22.43;61.20;101843.47;4903879;29;20403;-80
2023/06/27 10:25:12;;;;;;;1.10;0.90;;;;;;;22.40;61.60;101838.19;4912499;29;20048;-80
2023/06/27 10:27:42;;;;;;;2.95;1.00;;;;;;;22.37;61.39;101838.28;4911594;29;20055;-79
2023/06/27 10:30:19;;;;;;;1.98;0.80;;;;;;;22.41;61.74;101848.00;4881445;29;20098;-80
2023/06/27 10:32:47;;;;;;;2.95;1.23;;;;;;;22.50;62.10;101845.03;4925660;29;20423;-79
2023/06/27 10:35:26;;;;;;;2.40;1.08;;;;;;;22.60;61.36;101839.38;4878985;29;20059;-80
2023/06/27 10:38:15;;;;;;;2.83;1.00;;;;;;;22.66;60.84;101841.88;4901503;29;20065;-81
2023/06/27 10:41:11;;;;;;;3.22;1.02;;;;;;;22.71;60.80;101839.91;4908165;29;20044;-79
2023/06/27 10:43:45;;;;;;;5.13;0.80;;;;;;;22.84;62.83;101832.34;4908310;29;20052;-78
2023/06/27 10:46:24;;;;;;;2.80;0.85;;;;;;;22.84;61.42;101830.53;4875129;29;20044;-80
2023/06/27 10:48:56;;;;;;;3.03;0.95;;;;;;;22.73;61.53;101835.38;4920362;29;20055;-79
2023/06/27 10:51:32;;;;;;;2.50;1.05;;;;;;;22.73;62.72;101830.88;4921422;29;20055;-79
2023/06/27 10:54:09;;;;;;;4.82;1.35;;;;;;;22.74;61.43;101834.44;4917663;29;20044;-80
2023/06/27 10:56:40;;;;;;;2.20;0.80;;;;;;;22.74;61.53;101829.06;4899031;29;20519;-79
2023/06/27 10:59:19;;;;;;;2.15;1.08;;;;;;;22.76;61.37;101830.78;4910001;29;20048;-80
2023/06/27 11:01:49;;;;;;;4.35;1.10;;;;;;;22.78;62.98;101826.25;4871793;29;20068;-79
2023/06/27 11:04:21;;;;;;;;;;;;;;;22.92;63.80;101828.47;4905516;29;20048;-80
2023/06/27 11:06:48;;;;;;;4.85;0.88;;;;;;;23.05;62.22;101836.16;4913367;29;19927;-79
2023/06/27 11:09:17;;;;;;;6.13;0.93;;;;;;;23.02;61.81;101831.72;4860836;29;20055;-81
2023/06/27 11:12:15;;;;;;;3.28;0.85;;;;;;;22.96;61.45;101848.94;4912616;29;20427;-80
2023/06/27 11:14:48;;;;;;;3.40;1.05;;;;;;;22.87;62.03;101840.28;4906037;29;20419;-79
2023/06/27 11:17:17;;;;;;;2.90;1.15;;;;;;;22.72;62.83;101844.34;4859027;29;20063;-80
2023/06/27 11:19:46;;;;;;;2.13;0.80;;;;;;;22.66;64.07;101833.81;4907411;28;20063;-79
2023/06/27 11:22:14;;;;;;;3.45;1.08;;;;;;;22.63;63.35;101844.63;4908690;28;20669;-79
2023/06/27 11:24:42;;;;;;;4.53;1.02;;;;;;;22.52;62.87;101843.19;4924823;29;20487;-80
2023/06/27 11:27:09;;;;;;;7.30;1.58;;;;;;;22.44;63.50;101853.28;4931489;29;20066;-79
2023/06/27 11:29:36;;;;;;;4.97;1.23;;;;;;;22.34;63.60;101844.63;4948937;28;20066;-81
2023/06/27 11:32:04;;;;;;;1.63;0.90;;;;;;;22.16;64.81;101842.47;4909298;28;20493;-80
2023/06/27 11:34:32;;;;;;;2.60;1.00;;;;;;;22.09;67.28;101843.56;4924794;29;20058;-80
2023/06/27 11:36:59;;;;;;;3.80;1.08;;;;;;;22.03;67.64;101854.47;4947002;29;20051;-80
2023/06/27 11:39:27;;;;;;;7.03;1.60;;;;;;;21.92;67.00;101847.59;4930075;28;20051;-80
2023/06/27 11:41:54;;;;;;;2.90;1.17;;;;;;;21.92;67.22;101844.91;4956747;28;20418;-80
2023/06/27 11:44:30;;;;;;;3.47;1.25;;;;;;;21.84;69.20;101849.63;4928488;29;20051;-80
2023/06/27 11:46:58;;;;;;;4.35;1.00;;;;;;;21.79;71.05;101852.44;4950472;28;20047;-80
2023/06/27 11:49:27;;;;;;;1.63;0.98;;;;;;;21.73;71.13;101844.56;4920194;28;20051;-79
2023/06/27 11:51:58;;;;;;;3.38;1.13;;;;;;;21.74;72.63;101848.13;4948687;29;20047;-80
2023/06/27 11:54:25;;;;;;;2.58;1.25;;;;;;;21.85;73.58;101839.78;4922937;28;20053;-80
2023/06/27 11:57:00;;;;;;;5.60;1.00;;;;;;;21.90;69.81;101848.56;4933284;29;20065;-80
2023/06/27 11:59:31;;;;;;;2.50;1.08;;;;;;;21.89;70.41;101854.84;4972107;28;20047;-79
2023/06/27 12:01:59;;;;;;;5.43;1.00;;;;;;;21.84;72.19;101846.94;4948051;29;20056;-80
2023/06/27 12:04:26;;;;;;;2.92;0.90;;;;;;;21.85;74.01;101842.44;4889280;28;21671;-80
2023/06/27 12:06:53;;;;;;;4.65;1.10;;;;;;;21.90;74.66;101849.44;4935851;29;20058;-80
2023/06/27 12:09:24;;;;;;;2.70;1.17;;;;;;;21.93;75.96;101843.13;4915441;29;20058;-80
2023/06/27 12:11:56;;;;;;;6.32;1.35;;;;;;;22.00;77.74;101842.91;4923454;29;20054;-80
2023/06/27 12:14:26;;;;;;;4.97;1.15;;;;;;;22.03;78.27;101839.25;4931146;29;20054;-80
2023/06/27 12:16:53;;;;;;;7.60;1.90;;;;;;;22.07;78.73;101843.59;4929558;29;20047;-80
2023/06/27 12:19:22;;;;;;;7.55;1.45;;;;;;;22.06;77.97;101854.38;4922488;28;20063;-81
2023/06/27 12:21:52;;;;;;;6.75;0.93;;;;;;;21.96;78.83;101846.59;4949899;28;20054;-80
2023/06/27 12:24:20;;;;;;;4.70;1.42;;;;;;;21.96;79.24;101837.66;4930466;28;20062;-80
2023/06/27 12:26:47;;;;;;;6.22;1.05;;;;;;;21.89;77.85;101834.28;4971924;28;20051;-80
2023/06/27 12:29:15;;;;;;;2.30;1.10;;;;;;;21.82;77.08;101839.88;4933868;28;20055;-79
2023/06/27 12:31:46;;;;;;;2.47;1.30;;;;;;;21.80;77.66;101843.47;4934474;29;20039;-80
2023/06/27 12:34:13;;;;;;;3.60;1.00;;;;;;;21.83;78.97;101839.81;4910832;28;20415;-80
2023/06/27 12:36:41;;;;;;;7.93;1.15;;;;;;;21.85;79.00;101845.13;4925957;29;20422;-81
2023/06/27 12:39:08;;;;;;;4.07;1.02;;;;;;;21.83;78.82;101846.97;4980203;28;20050;-82
2023/06/27 12:41:37;;;;;;;7.65;1.33;;;;;;;21.76;78.86;101844.47;4931155;29;20047;-81
2023/06/27 12:44:04;;;;;;;3.25;1.40;;;;;;;21.70;77.74;101850.03;4932283;28;20050;-80
2023/06/27 12:46:35;;;;;;;4.33;1.23;;;;;;;21.71;77.93;101857.13;4945946;28;20047;-81
2023/06/27 12:49:03;;;;;;;4.30;1.15;;;;;;;21.72;77.67;101834.75;4921551;28;20051;-81
2023/06/27 12:51:30;;;;;;;5.72;1.08;;;;;;;21.76;76.02;101839.13;4910665;28;20530;-81
2023/06/27 12:53:57;;;;;;;5.18;0.93;;;;;;;21.77;75.30;101840.00;4951731;28;20046;-81
2023/06/27 12:56:25;;;;;;;3.35;1.00;;;;;;;21.81;75.28;101844.34;4941094;28;20051;-79
2023/06/27 12:58:53;;;;;;;4.07;1.08;;;;;;;21.74;73.63;101851.69;4929124;28;20054;-80